Time;durP1;ratioP1;P1;durP2;ratioP2;P2;SDS_P1;SDS_P2;PMS_P1;PMS_P2;Temp;Humidity;BMP_temperature;BMP_pressure;BME280_temperature;BME280_humidity;BME280_pressure;Samples;Min_cycle;Max_cycle;Signal;HPM_P1;HPM_P2
2022/07/04 00:02:24;;;;;;;2.80;2.45;;;13.50;99.90;;;;;;5067726;28;20051;-64
2022/07/04 00:04:49;;;;;;;2.53;2.33;;;13.50;99.90;;;;;;5066551;28;20112;-64
2022/07/04 00:07:16;;;;;;;2.78;2.58;;;13.50;99.90;;;;;;5067949;28;20367;-64
2022/07/04 00:09:41;;;;;;;3.22;2.83;;;13.50;99.90;;;;;;5068470;28;20079;-64
2022/07/04 00:12:08;;;;;;;8.75;3.65;;;13.50;99.90;;;;;;5066129;28;20133;-64
2022/07/04 00:14:33;;;;;;;3.47;2.80;;;13.50;99.90;;;;;;5067567;28;20167;-64
2022/07/04 00:16:59;;;;;;;3.90;2.88;;;13.60;99.90;;;;;;5067157;28;20550;-64
2022/07/04 00:19:24;;;;;;;3.92;2.28;;;13.50;99.90;;;;;;5066420;28;20120;-64
2022/07/04 00:21:50;;;;;;;5.72;2.67;;;13.50;99.90;;;;;;5066883;28;20415;-64
2022/07/04 00:24:16;;;;;;;2.85;2.58;;;13.50;99.90;;;;;;5066455;28;20045;-64
2022/07/04 00:26:41;;;;;;;2.92;2.30;;;13.40;99.90;;;;;;5067170;28;20125;-64
2022/07/04 00:29:07;;;;;;;4.38;2.42;;;13.40;99.90;;;;;;5066688;28;20044;-64
2022/07/04 00:31:33;;;;;;;3.13;2.60;;;13.30;99.90;;;;;;5066985;28;20385;-64
2022/07/04 00:33:59;;;;;;;4.50;3.00;;;13.30;99.90;;;;;;5065959;28;20036;-64
2022/07/04 00:36:25;;;;;;;2.83;2.55;;;13.20;99.90;;;;;;5066706;28;20372;-64
2022/07/04 00:38:50;;;;;;;5.07;2.97;;;13.20;99.90;;;;;;5065182;28;20052;-64
2022/07/04 00:41:16;;;;;;;2.92;2.72;;;13.20;99.90;;;;;;5066330;28;20062;-63
2022/07/04 00:43:41;;;;;;;4.32;2.47;;;13.20;99.90;;;;;;5067519;28;20044;-64
2022/07/04 00:46:07;;;;;;;3.40;2.15;;;13.20;99.90;;;;;;5065452;28;20052;-64
2022/07/04 00:48:33;;;;;;;3.58;2.20;;;13.20;99.90;;;;;;5066753;28;20032;-64
2022/07/04 00:51:00;;;;;;;8.27;2.78;;;13.10;99.90;;;;;;5066251;28;20423;-64
2022/07/04 00:53:26;;;;;;;3.83;2.70;;;13.10;99.90;;;;;;5065821;28;20051;-63
2022/07/04 00:55:52;;;;;;;4.75;2.45;;;13.10;99.90;;;;;;5066015;28;20739;-64
2022/07/04 00:58:22;;;;;;;3.10;2.38;;;13.10;99.90;;;;;;5066102;28;20573;-64
2022/07/04 01:00:49;;;;;;;3.70;2.50;;;13.10;99.90;;;;;;5065378;28;20044;-64
2022/07/04 01:03:15;;;;;;;4.60;2.75;;;13.10;99.90;;;;;;5066618;28;20036;-64
2022/07/04 01:05:41;;;;;;;3.38;2.63;;;13.10;99.90;;;;;;5066462;28;20489;-64
2022/07/04 01:08:08;;;;;;;7.05;3.78;;;13.10;99.90;;;;;;5065415;28;20116;-64
2022/07/04 01:10:33;;;;;;;9.43;2.90;;;13.00;99.90;;;;;;5066252;28;20044;-64
2022/07/04 01:12:59;;;;;;;3.85;2.42;;;13.00;99.90;;;;;;5065670;28;20044;-64
2022/07/04 01:15:25;;;;;;;3.80;2.50;;;13.00;99.90;;;;;;5065648;28;20087;-64
2022/07/04 01:17:50;;;;;;;6.15;2.92;;;13.00;99.90;;;;;;5065995;28;20052;-64
2022/07/04 01:20:16;;;;;;;3.22;2.92;;;13.00;99.90;;;;;;5066376;28;20491;-64
2022/07/04 01:22:42;;;;;;;5.13;2.67;;;13.00;99.90;;;;;;5066191;28;20048;-64
2022/07/04 01:25:09;;;;;;;3.38;3.05;;;13.30;99.90;;;;;;5064684;28;20044;-64
2022/07/04 01:27:35;;;;;;;3.55;3.25;;;13.00;99.90;;;;;;5066200;28;20032;-64
2022/07/04 01:30:00;;;;;;;4.38;2.85;;;12.90;99.90;;;;;;5065167;28;20757;-64
2022/07/04 01:32:26;;;;;;;3.35;3.05;;;12.90;99.90;;;;;;5065877;28;20048;-64
2022/07/04 01:34:52;;;;;;;5.55;3.67;;;12.90;99.90;;;;;;5064082;28;20547;-64
2022/07/04 01:37:18;;;;;;;7.10;3.63;;;12.90;99.90;;;;;;5065212;28;20119;-64
2022/07/04 01:39:44;;;;;;;3.50;3.20;;;12.80;99.90;;;;;;5066510;28;20450;-64
2022/07/04 01:42:09;;;;;;;7.25;3.55;;;12.80;99.90;;;;;;5065553;28;20084;-64
2022/07/04 01:44:35;;;;;;;5.43;3.05;;;12.70;99.90;;;;;;5065313;28;20106;-64
2022/07/04 01:47:01;;;;;;;4.03;3.17;;;12.70;99.90;;;;;;5064236;28;20051;-64
2022/07/04 01:49:27;;;;;;;3.42;3.13;;;12.70;99.90;;;;;;5065108;28;20048;-64
2022/07/04 01:51:53;;;;;;;3.72;3.40;;;12.70;99.90;;;;;;5065503;28;20040;-64
2022/07/04 01:54:19;;;;;;;3.53;3.05;;;12.70;99.90;;;;;;5065662;28;20036;-64
2022/07/04 01:56:46;;;;;;;3.88;3.55;;;12.60;99.90;;;;;;5065726;28;20040;-64
2022/07/04 01:59:11;;;;;;;5.80;3.25;;;12.60;99.90;;;;;;5066137;28;20060;-64
2022/07/04 02:01:38;;;;;;;6.15;3.40;;;12.60;99.90;;;;;;5064774;28;20056;-64
2022/07/04 02:04:05;;;;;;;8.02;3.40;;;12.60;99.90;;;;;;5064668;28;20044;-64
2022/07/04 02:06:31;;;;;;;7.78;3.40;;;12.60;99.90;;;;;;5065912;28;20131;-64
2022/07/04 02:09:15;;;;;;;5.63;3.72;;;12.60;99.90;;;;;;5065176;28;20056;-64
2022/07/04 02:14:26;;;;;;;4.75;2.80;;;12.60;99.90;;;;;;5067571;28;20052;-64
2022/07/04 02:16:52;;;;;;;3.30;3.00;;;12.60;99.90;;;;;;5067818;28;20380;-64
2022/07/04 02:19:17;;;;;;;5.75;3.80;;;12.90;99.90;;;;;;5068734;28;20066;-64
2022/07/04 02:21:43;;;;;;;5.85;3.20;;;12.60;99.90;;;;;;5070327;28;20492;-64
2022/07/04 02:24:10;;;;;;;4.35;3.05;;;12.70;99.90;;;;;;5069262;28;20062;-64
2022/07/04 02:26:35;;;;;;;6.47;3.90;;;12.60;99.90;;;;;;5068729;28;20246;-64
2022/07/04 02:29:01;;;;;;;4.53;3.67;;;12.60;99.90;;;;;;5068952;28;20079;-64
2022/07/04 02:31:26;;;;;;;3.92;3.63;;;12.60;99.90;;;;;;5069170;28;20407;-64
2022/07/04 02:33:52;;;;;;;6.25;3.67;;;12.60;99.90;;;;;;5068552;28;20068;-64
2022/07/04 02:36:18;;;;;;;6.63;3.35;;;12.50;99.90;;;;;;5069513;28;20083;-64
2022/07/04 02:38:43;;;;;;;5.57;3.35;;;12.60;99.90;;;;;;5069167;28;20052;-64
2022/07/04 02:41:09;;;;;;;3.85;3.50;;;12.50;99.90;;;;;;5068947;28;20056;-64
2022/07/04 02:43:34;;;;;;;6.70;4.07;;;12.50;99.90;;;;;;5069179;28;20091;-64
2022/07/04 02:46:00;;;;;;;6.65;3.80;;;12.50;99.90;;;;;;5067848;28;20052;-64
2022/07/04 02:48:25;;;;;;;6.22;3.80;;;12.50;99.90;;;;;;5069068;28;20048;-64
2022/07/04 02:50:51;;;;;;;5.93;4.43;;;12.50;99.90;;;;;;5068521;28;20395;-64
2022/07/04 02:53:17;;;;;;;5.00;3.15;;;12.50;99.90;;;;;;5068213;28;20094;-63
2022/07/04 02:55:42;;;;;;;5.55;3.40;;;12.50;99.90;;;;;;5069612;28;20525;-64
2022/07/04 02:58:08;;;;;;;4.10;3.67;;;12.40;99.90;;;;;;5068213;28;20120;-64
2022/07/04 03:00:34;;;;;;;4.55;3.85;;;12.40;99.90;;;;;;5068178;28;20051;-64
2022/07/04 03:02:59;;;;;;;5.25;3.42;;;12.40;99.90;;;;;;5068047;28;20495;-63
2022/07/04 03:05:25;;;;;;;4.40;4.00;;;12.50;99.90;;;;;;5067573;28;20076;-64
2022/07/04 03:07:50;;;;;;;5.90;4.63;;;12.50;99.90;;;;;;5067861;28;20074;-64
2022/07/04 03:10:16;;;;;;;7.35;4.15;;;12.40;99.90;;;;;;5068619;28;20465;-64
2022/07/04 03:12:42;;;;;;;5.38;4.40;;;12.50;99.90;;;;;;5069240;28;20040;-64
2022/07/04 03:15:07;;;;;;;4.38;3.88;;;12.60;99.90;;;;;;5067565;28;20049;-64
2022/07/04 03:17:33;;;;;;;6.55;4.60;;;12.40;99.90;;;;;;5066791;28;20044;-64
2022/07/04 03:19:59;;;;;;;4.57;3.83;;;12.40;99.90;;;;;;5068011;28;20124;-64
2022/07/04 03:22:25;;;;;;;8.30;4.93;;;12.50;99.90;;;;;;5067649;28;20044;-64
2022/07/04 03:24:51;;;;;;;6.65;5.03;;;12.50;99.90;;;;;;5067632;28;20036;-63
2022/07/04 03:27:16;;;;;;;6.22;4.60;;;12.50;99.90;;;;;;5068454;28;20193;-63
2022/07/04 03:29:42;;;;;;;5.63;4.28;;;12.50;99.90;;;;;;5067873;28;20044;-64
2022/07/04 03:32:08;;;;;;;5.43;4.35;;;12.40;99.90;;;;;;5067556;28;20037;-64
2022/07/04 03:34:33;;;;;;;5.43;4.93;;;12.40;99.90;;;;;;5068176;28;20040;-64
2022/07/04 03:36:59;;;;;;;9.77;4.50;;;12.40;99.90;;;;;;5067052;28;20040;-64
2022/07/04 03:39:24;;;;;;;9.27;4.57;;;12.50;99.90;;;;;;5067991;28;20040;-64
2022/07/04 03:41:50;;;;;;;5.40;4.70;;;12.50;99.90;;;;;;5067595;28;20040;-63
2022/07/04 03:44:16;;;;;;;5.25;4.60;;;12.70;99.90;;;;;;5067419;28;20071;-64
2022/07/04 03:46:41;;;;;;;8.82;4.97;;;12.50;99.90;;;;;;5068596;28;20139;-64
2022/07/04 03:49:07;;;;;;;6.47;4.85;;;12.80;99.90;;;;;;5066754;28;20040;-64
2022/07/04 03:51:33;;;;;;;5.72;5.05;;;12.50;99.90;;;;;;5067773;28;20118;-64
2022/07/04 03:53:59;;;;;;;8.30;5.05;;;12.50;99.90;;;;;;5067390;28;20499;-64
2022/07/04 03:56:25;;;;;;;8.57;5.53;;;12.50;99.90;;;;;;5066852;28;20079;-64
2022/07/04 03:58:50;;;;;;;9.43;5.38;;;12.50;99.90;;;;;;5066038;28;20131;-64
2022/07/04 04:01:17;;;;;;;10.98;6.28;;;12.50;99.90;;;;;;5067885;28;20048;-64
2022/07/04 04:06:29;;;;;;;6.80;5.60;;;12.50;99.90;;;;;;5067492;28;20049;-64
2022/07/04 04:08:54;;;;;;;7.63;5.93;;;12.60;99.90;;;;;;5066990;28;20430;-64
2022/07/04 04:11:20;;;;;;;6.38;5.78;;;12.60;99.90;;;;;;5067146;28;20051;-64
2022/07/04 04:13:46;;;;;;;9.10;6.78;;;12.60;99.90;;;;;;5067428;28;20051;-64
2022/07/04 04:16:12;;;;;;;10.82;6.95;;;12.60;99.90;;;;;;5067662;28;20403;-64
2022/07/04 04:18:37;;;;;;;11.18;7.13;;;12.60;99.90;;;;;;5066579;28;20040;-64
2022/07/04 04:21:04;;;;;;;8.77;7.18;;;12.70;99.90;;;;;;5066893;28;20036;-64
2022/07/04 04:23:30;;;;;;;8.70;6.80;;;12.70;99.90;;;;;;5066151;28;20459;-64
2022/07/04 04:25:55;;;;;;;10.55;7.72;;;12.70;99.90;;;;;;5065988;28;20051;-64
2022/07/04 04:28:22;;;;;;;10.35;7.70;;;12.80;99.90;;;;;;5066970;28;20411;-64
2022/07/04 04:30:48;;;;;;;8.43;7.32;;;12.90;99.90;;;;;;5066808;28;20044;-64
2022/07/04 04:33:13;;;;;;;8.00;7.20;;;12.90;99.90;;;;;;5066847;28;20044;-64
2022/07/04 04:35:39;;;;;;;13.90;8.00;;;13.00;99.90;;;;;;5066918;28;20045;-64
2022/07/04 04:38:04;;;;;;;10.23;6.90;;;13.00;99.90;;;;;;5065944;28;20526;-64
2022/07/04 04:40:30;;;;;;;7.45;6.68;;;13.00;99.90;;;;;;5066035;28;20113;-64
2022/07/04 04:42:56;;;;;;;5.82;5.18;;;13.10;99.90;;;;;;5066841;28;20047;-64
2022/07/04 04:45:22;;;;;;;8.30;6.93;;;13.20;99.90;;;;;;5066252;28;20519;-64
2022/07/04 04:47:47;;;;;;;6.65;5.75;;;13.20;99.90;;;;;;5066819;28;20045;-64
2022/07/04 04:50:14;;;;;;;10.45;5.72;;;13.30;99.90;;;;;;5067110;28;20450;-64
2022/07/04 04:52:43;;;;;;;8.70;5.35;;;13.30;99.90;;;;;;5065875;28;20419;-64
2022/07/04 04:55:09;;;;;;;8.45;4.55;;;13.40;99.90;;;;;;5066246;28;20422;-64
2022/07/04 04:57:35;;;;;;;7.07;4.50;;;13.40;99.90;;;;;;5066616;28;20282;-64
2022/07/04 05:00:00;;;;;;;5.10;4.57;;;13.50;99.90;;;;;;5064086;28;20056;-64
2022/07/04 05:02:26;;;;;;;7.47;5.20;;;13.50;99.90;;;;;;5066209;28;20044;-64
2022/07/04 05:04:53;;;;;;;7.68;4.38;;;13.60;99.90;;;;;;5066180;28;20059;-64
2022/07/04 05:07:18;;;;;;;7.93;4.93;;;13.60;99.90;;;;;;5065517;28;20048;-64
2022/07/04 05:09:44;;;;;;;10.85;5.20;;;13.70;99.90;;;;;;5067118;28;20044;-64
2022/07/04 05:12:11;;;;;;;6.57;5.28;;;13.70;99.90;;;;;;5066393;28;20186;-64
2022/07/04 05:14:36;;;;;;;8.98;4.95;;;13.80;99.90;;;;;;5065594;28;20079;-64
2022/07/04 05:17:02;;;;;;;6.13;4.95;;;13.80;99.90;;;;;;5065999;28;20131;-64
2022/07/04 05:19:29;;;;;;;6.35;4.55;;;13.80;99.90;;;;;;5066150;28;20085;-64
2022/07/04 05:21:54;;;;;;;6.78;4.82;;;13.80;99.90;;;;;;5065085;28;20450;-64
2022/07/04 05:24:20;;;;;;;9.15;5.47;;;13.90;99.90;;;;;;5065832;28;20048;-64
2022/07/04 05:26:46;;;;;;;10.73;4.65;;;14.00;99.90;;;;;;5066093;28;20056;-64
2022/07/04 05:29:12;;;;;;;10.23;5.07;;;14.00;99.90;;;;;;5066024;28;20040;-64
2022/07/04 05:31:38;;;;;;;9.98;5.55;;;14.00;99.90;;;;;;5064487;28;20537;-64
2022/07/04 05:34:03;;;;;;;5.35;4.63;;;14.00;99.90;;;;;;5065730;28;20102;-64
2022/07/04 05:36:29;;;;;;;6.63;5.28;;;14.00;99.90;;;;;;5063879;28;20495;-64
2022/07/04 05:38:55;;;;;;;4.95;4.55;;;14.20;99.90;;;;;;5065395;28;20041;-64
2022/07/04 05:41:20;;;;;;;7.20;4.80;;;14.20;99.90;;;;;;5065868;28;20427;-64
2022/07/04 05:43:46;;;;;;;5.72;5.15;;;14.30;99.90;;;;;;5065383;28;20044;-64
2022/07/04 05:46:11;;;;;;;6.80;5.18;;;14.30;99.90;;;;;;5066276;28;20048;-64
2022/07/04 05:48:37;;;;;;;8.30;5.60;;;14.40;99.90;;;;;;5064950;28;20438;-64
2022/07/04 05:51:03;;;;;;;7.97;5.28;;;14.50;99.90;;;;;;5063910;28;20047;-64
2022/07/04 05:53:29;;;;;;;5.25;4.72;;;14.50;99.90;;;;;;5065751;28;20086;-64
2022/07/04 05:55:55;;;;;;;12.85;6.10;;;14.50;99.90;;;;;;5065005;28;20037;-64
2022/07/04 05:58:21;;;;;;;7.00;4.90;;;14.60;99.90;;;;;;5065397;28;20060;-64
2022/07/04 06:00:46;;;;;;;8.55;4.65;;;14.70;99.90;;;;;;5065507;28;20044;-64
2022/07/04 06:03:12;;;;;;;13.05;4.75;;;14.70;99.90;;;;;;5065420;28;20055;-64
2022/07/04 06:05:38;;;;;;;5.93;4.80;;;14.80;99.90;;;;;;5064608;28;20123;-64
2022/07/04 06:08:03;;;;;;;7.07;5.45;;;14.90;99.90;;;;;;5065222;28;20036;-64
2022/07/04 06:10:30;;;;;;;6.00;5.10;;;15.00;99.90;;;;;;5064613;28;20040;-64
2022/07/04 06:12:55;;;;;;;6.63;5.22;;;15.10;99.90;;;;;;5064181;28;20052;-64
2022/07/04 06:15:21;;;;;;;7.65;5.00;;;15.20;99.90;;;;;;5065591;28;20407;-64
2022/07/04 06:17:47;;;;;;;7.65;5.10;;;15.40;99.90;;;;;;5064094;28;20048;-64
2022/07/04 06:20:12;;;;;;;6.13;4.18;;;15.40;99.90;;;;;;5066087;28;20044;-64
2022/07/04 06:22:42;;;;;;;7.60;4.75;;;15.50;99.90;;;;;;5065375;28;20040;-64
2022/07/04 06:25:13;;;;;;;5.95;4.43;;;15.60;99.90;;;;;;5064591;28;20055;-64
2022/07/04 06:27:39;;;;;;;5.15;4.28;;;15.90;99.90;;;;;;5065528;28;20076;-64
2022/07/04 06:30:05;;;;;;;7.95;4.00;;;15.70;99.90;;;;;;5063651;28;20076;-64
2022/07/04 06:32:50;;;;;;;8.40;3.85;;;15.80;99.90;;;;;;5064694;28;20095;-64
2022/07/04 06:38:05;;;;;;;6.20;3.65;;;16.00;99.90;;;;;;5064376;28;20612;-64
2022/07/04 06:40:31;;;;;;;8.60;4.18;;;16.10;99.90;;;;;;5065468;28;20511;-64
2022/07/04 06:42:57;;;;;;;5.72;4.47;;;16.10;99.90;;;;;;5063632;28;20040;-64
2022/07/04 06:45:22;;;;;;;4.93;3.70;;;16.40;99.90;;;;;;5063582;28;20036;-64
2022/07/04 06:47:48;;;;;;;6.15;3.78;;;16.30;99.90;;;;;;5065105;28;20101;-64
2022/07/04 06:50:14;;;;;;;5.75;3.35;;;16.40;99.90;;;;;;5065524;28;20036;-64
2022/07/04 06:52:39;;;;;;;9.27;4.38;;;16.50;99.90;;;;;;5064728;28;20105;-64
2022/07/04 06:55:08;;;;;;;7.82;4.05;;;16.60;99.90;;;;;;5064788;28;20399;-64
2022/07/04 06:57:34;;;;;;;4.72;2.97;;;16.70;99.90;;;;;;5065093;28;20044;-64
2022/07/04 07:00:00;;;;;;;5.70;3.80;;;16.70;99.90;;;;;;5065224;28;20399;-64
2022/07/04 07:02:25;;;;;;;5.60;4.00;;;17.10;99.90;;;;;;5067275;28;20144;-64
2022/07/04 07:04:51;;;;;;;5.30;3.22;;;16.90;99.90;;;;;;5068227;28;20036;-64
2022/07/04 07:07:16;;;;;;;7.53;3.40;;;17.00;99.90;;;;;;5068011;28;20052;-64
2022/07/04 07:09:42;;;;;;;8.98;3.60;;;17.00;99.90;;;;;;5069163;28;20048;-64
2022/07/04 07:12:08;;;;;;;6.97;3.70;;;17.10;99.90;;;;;;5068198;28;20052;-64
2022/07/04 07:14:33;;;;;;;3.78;3.10;;;17.10;99.90;;;;;;5066559;28;20036;-64
2022/07/04 07:16:59;;;;;;;4.40;3.13;;;17.10;99.90;;;;;;5068028;28;20045;-64
2022/07/04 07:19:25;;;;;;;6.55;3.30;;;17.10;99.90;;;;;;5068286;28;20044;-64
2022/07/04 07:21:50;;;;;;;6.63;3.58;;;17.00;99.90;;;;;;5067462;28;20049;-64
2022/07/04 07:24:16;;;;;;;6.35;3.67;;;17.00;99.90;;;;;;5068437;28;20048;-64
2022/07/04 07:26:41;;;;;;;5.95;3.10;;;17.00;99.90;;;;;;5069064;28;20059;-64
2022/07/04 07:29:07;;;;;;;8.25;3.25;;;17.00;99.90;;;;;;5066761;28;20051;-64
2022/07/04 07:31:33;;;;;;;7.07;3.67;;;17.10;99.90;;;;;;5067912;28;20081;-64
2022/07/04 07:33:58;;;;;;;6.55;2.95;;;17.20;99.90;;;;;;5067728;28;20040;-65
2022/07/04 07:36:24;;;;;;;10.82;3.45;;;17.20;99.90;;;;;;5067878;28;20048;-64
2022/07/04 07:38:49;;;;;;;5.78;3.22;;;17.20;99.90;;;;;;5068009;28;20047;-64
2022/07/04 07:41:15;;;;;;;5.47;3.13;;;17.10;99.90;;;;;;5067512;28;20048;-64
2022/07/04 07:43:41;;;;;;;8.02;3.00;;;17.10;99.90;;;;;;5068155;28;20048;-65
2022/07/04 07:46:08;;;;;;;6.05;3.03;;;17.00;99.90;;;;;;5067564;28;20230;-64
2022/07/04 07:48:34;;;;;;;8.10;3.42;;;16.90;99.90;;;;;;5065883;28;20064;-64
2022/07/04 07:50:59;;;;;;;12.18;3.80;;;16.90;99.90;;;;;;5066004;28;20194;-64
2022/07/04 07:53:25;;;;;;;6.60;2.40;;;16.90;99.90;;;;;;5066657;28;20539;-64
2022/07/04 07:55:51;;;;;;;6.75;2.83;;;16.90;99.90;;;;;;5067040;28;20067;-64
2022/07/04 07:58:17;;;;;;;6.72;2.45;;;17.00;99.90;;;;;;5067376;28;20427;-64
2022/07/04 08:00:43;;;;;;;7.10;2.92;;;16.90;99.90;;;;;;5068204;28;20056;-63
2022/07/04 08:06:03;;;;;;;3.13;1.95;;;17.00;99.90;;;;;;5029342;28;20057;-64
2022/07/04 08:08:29;;;;;;;5.35;2.38;;;17.10;99.90;;;;;;5067540;28;20041;-64
2022/07/04 08:10:54;;;;;;;5.95;1.90;;;17.20;99.90;;;;;;5065709;28;20041;-65
2022/07/04 08:13:20;;;;;;;3.83;2.33;;;17.40;99.90;;;;;;5066895;28;20041;-64
2022/07/04 08:15:46;;;;;;;6.80;2.05;;;17.60;99.90;;;;;;5067436;28;20055;-64
2022/07/04 08:18:12;;;;;;;5.00;1.63;;;17.70;99.90;;;;;;5067224;28;20053;-64
2022/07/04 08:20:38;;;;;;;1.80;1.02;;;17.70;99.90;;;;;;5067132;28;20090;-64
2022/07/04 08:23:03;;;;;;;2.35;0.80;;;17.60;99.90;;;;;;5066890;28;20550;-64
2022/07/04 08:25:29;;;;;;;1.27;0.88;;;17.70;99.90;;;;;;5066559;28;20137;-65
2022/07/04 08:27:55;;;;;;;3.00;1.27;;;17.70;99.90;;;;;;5066759;28;20052;-64
2022/07/04 08:30:20;;;;;;;2.03;0.98;;;17.80;99.90;;;;;;5066690;28;20376;-64
2022/07/04 08:32:46;;;;;;;5.00;0.88;;;17.90;99.90;;;;;;5065657;28;20068;-64
2022/07/04 08:35:12;;;;;;;2.92;1.23;;;17.90;99.90;;;;;;5067527;28;20105;-64
2022/07/04 08:37:40;;;;;;;4.80;1.10;;;18.00;99.90;;;;;;5066464;28;20155;-64
2022/07/04 08:40:07;;;;;;;3.50;1.23;;;18.00;99.90;;;;;;5066590;28;20048;-64
2022/07/04 08:42:40;;;;;;;2.60;1.35;;;18.00;99.90;;;;;;5066809;28;20037;-64
2022/07/04 08:45:06;;;;;;;4.00;1.17;;;18.10;99.90;;;;;;5065718;28;20071;-64
2022/07/04 08:47:34;;;;;;;1.55;0.90;;;18.20;99.90;;;;;;5066886;28;20155;-64
2022/07/04 08:50:12;;;;;;;2.60;1.00;;;18.50;99.90;;;;;;5066309;28;20054;-64
2022/07/04 08:52:53;;;;;;;2.17;1.25;;;18.50;99.90;;;;;;5065914;28;20174;-64
2022/07/04 09:00:51;;;;;;;1.70;1.00;;;18.90;99.90;;;;;;5065685;28;20128;-65
2022/07/04 09:03:18;;;;;;;2.03;0.90;;;19.20;99.90;;;;;;5065306;28;20461;-64
2022/07/04 09:05:44;;;;;;;2.67;0.82;;;19.30;99.90;;;;;;5066104;28;20083;-65
2022/07/04 09:08:10;;;;;;;3.17;1.13;;;19.40;99.90;;;;;;5065998;28;20471;-64
2022/07/04 09:10:36;;;;;;;3.60;0.82;;;19.60;99.90;;;;;;5064782;28;20471;-64
2022/07/04 09:13:06;;;;;;;4.05;1.13;;;19.60;99.90;;;;;;5064956;28;20083;-64
2022/07/04 09:15:32;;;;;;;2.53;0.80;;;19.60;99.90;;;;;;5066134;28;20106;-65
2022/07/04 09:18:02;;;;;;;1.45;0.60;;;19.50;99.90;;;;;;5065944;28;20041;-64
2022/07/04 09:20:30;;;;;;;4.03;1.02;;;19.70;99.90;;;;;;5065375;28;20048;-64
2022/07/04 09:22:56;;;;;;;5.00;1.10;;;19.60;99.90;;;;;;5065619;28;20514;-64
2022/07/04 09:25:24;;;;;;;1.75;0.73;;;19.60;99.90;;;;;;5066011;28;20494;-64
2022/07/04 09:27:56;;;;;;;1.20;0.70;;;19.70;99.90;;;;;;5063585;28;20032;-64
2022/07/04 09:30:25;;;;;;;2.38;0.85;;;19.80;99.90;;;;;;5065773;28;20160;-65
2022/07/04 09:32:58;;;;;;;3.03;1.00;;;20.00;99.90;;;;;;5065740;28;20082;-64
2022/07/04 09:35:24;;;;;;;3.35;0.70;;;20.30;99.90;;;;;;5065437;28;20082;-64
2022/07/04 09:37:55;;;;;;;1.17;0.73;;;20.10;99.90;;;;;;5065807;28;20097;-64
2022/07/04 09:40:26;;;;;;;2.20;0.50;;;20.30;99.90;;;;;;5066381;28;20055;-64
2022/07/04 09:42:54;;;;;;;1.33;0.70;;;20.20;99.90;;;;;;5064679;28;20052;-65
2022/07/04 09:45:23;;;;;;;3.53;0.98;;;20.00;99.90;;;;;;5064396;28;20052;-65
2022/07/04 09:47:49;;;;;;;2.17;1.05;;;19.80;99.90;;;;;;5063552;28;20055;-64
2022/07/04 09:50:20;;;;;;;1.45;0.82;;;19.60;99.90;;;;;;5066675;28;20095;-64
2022/07/04 09:52:59;;;;;;;1.70;0.90;;;19.40;99.90;;;;;;5065936;28;20032;-64
2022/07/04 09:55:29;;;;;;;0.88;0.70;;;19.40;99.90;;;;;;5064887;28;20503;-64
2022/07/04 09:58:03;;;;;;;3.47;1.00;;;19.20;99.90;;;;;;5065455;28;20059;-64
2022/07/04 10:00:32;;;;;;;2.65;1.10;;;19.20;99.90;;;;;;5065851;28;20119;-65
2022/07/04 10:03:25;;;;;;;1.88;1.00;;;19.20;99.90;;;;;;5064394;28;20593;-64
2022/07/04 10:06:04;;;;;;;2.33;0.90;;;19.10;99.90;;;;;;5065606;28;20098;-64
2022/07/04 10:08:29;;;;;;;2.75;0.95;;;19.00;99.90;;;;;;5065939;28;20040;-64
2022/07/04 10:11:00;;;;;;;2.03;0.90;;;19.20;99.90;;;;;;5064424;28;20052;-64
2022/07/04 10:13:26;;;;;;;2.97;1.05;;;19.20;99.90;;;;;;5065480;28;20058;-64
2022/07/04 10:15:52;;;;;;;1.52;0.98;;;19.40;99.90;;;;;;5064838;28;20045;-64
2022/07/04 10:18:19;;;;;;;2.50;1.20;;;19.60;99.90;;;;;;5065374;28;20045;-64
2022/07/04 10:20:48;;;;;;;1.83;0.90;;;19.80;99.90;;;;;;5066172;28;20072;-64
2022/07/04 10:23:15;;;;;;;2.65;1.20;;;19.80;99.90;;;;;;5065382;28;20037;-64
2022/07/04 10:25:41;;;;;;;3.38;1.20;;;19.60;99.90;;;;;;5065684;28;20452;-64
2022/07/04 10:28:08;;;;;;;5.18;0.85;;;19.60;99.90;;;;;;5065078;28;20056;-64
2022/07/04 10:30:38;;;;;;;2.25;0.93;;;19.40;99.90;;;;;;5064981;28;20540;-65
2022/07/04 10:33:08;;;;;;;2.85;1.10;;;19.40;99.90;;;;;;5065229;28;20072;-64
2022/07/04 10:35:54;;;;;;;4.28;1.17;;;19.20;99.90;;;;;;5067707;28;20376;-64
2022/07/04 10:38:27;;;;;;;3.30;1.25;;;19.10;99.90;;;;;;5068526;28;20036;-64
2022/07/04 10:41:01;;;;;;;1.55;1.17;;;19.10;99.90;;;;;;5069320;28;20445;-64
2022/07/04 10:43:41;;;;;;;1.95;1.67;;;19.40;99.90;;;;;;5069533;28;20097;-64
2022/07/04 10:46:13;;;;;;;2.58;1.42;;;19.60;99.90;;;;;;5067990;28;20059;-64
2022/07/04 10:48:55;;;;;;;1.20;1.10;;;19.90;99.90;;;;;;5069092;28;20040;-64
2022/07/04 10:51:45;;;;;;;1.10;0.80;;;20.20;99.90;;;;;;5068429;28;20146;-64
2022/07/04 10:54:19;;;;;;;2.17;1.15;;;20.40;99.90;;;;;;5069656;28;20173;-64
2022/07/04 10:56:52;;;;;;;2.35;1.75;;;20.40;99.90;;;;;;5069553;28;20063;-64
2022/07/04 10:59:27;;;;;;;1.92;1.00;;;20.50;99.90;;;;;;5067613;28;20101;-64
2022/07/04 11:02:06;;;;;;;3.28;1.10;;;20.60;99.90;;;;;;5068363;28;20503;-64
2022/07/04 11:04:44;;;;;;;2.35;0.85;;;20.70;99.90;;;;;;5068930;28;20052;-64
2022/07/04 11:07:11;;;;;;;4.82;0.85;;;20.70;99.90;;;;;;5066804;28;20109;-64
2022/07/04 11:09:37;;;;;;;0.95;0.55;;;20.50;99.90;;;;;;5068926;28;20563;-64
2022/07/04 11:12:04;;;;;;;1.00;0.60;;;20.50;99.90;;;;;;5066405;28;20094;-64
2022/07/04 11:14:30;;;;;;;2.90;0.70;;;20.70;99.90;;;;;;5068387;28;20051;-64
2022/07/04 11:16:55;;;;;;;3.63;1.20;;;20.90;99.90;;;;;;5068027;28;20525;-64
2022/07/04 11:19:22;;;;;;;1.15;0.47;;;21.10;99.90;;;;;;5068115;28;20036;-64
2022/07/04 11:21:47;;;;;;;1.88;0.85;;;21.30;99.90;;;;;;5068010;28;20474;-64
2022/07/04 11:24:13;;;;;;;1.98;0.68;;;21.40;99.90;;;;;;5067489;28;20044;-65
2022/07/04 11:26:39;;;;;;;1.23;0.60;;;21.60;99.90;;;;;;5067477;28;20045;-64
2022/07/04 11:29:04;;;;;;;1.38;0.63;;;21.70;99.90;;;;;;5067645;28;20510;-64
2022/07/04 11:31:37;;;;;;;0.75;0.47;;;21.70;99.90;;;;;;5068456;28;20129;-64
2022/07/04 11:34:03;;;;;;;0.95;0.60;;;21.70;99.90;;;;;;5065848;28;20503;-64
2022/07/04 11:36:29;;;;;;;3.15;0.75;;;21.80;99.90;;;;;;5068560;28;20075;-64
2022/07/04 11:39:00;;;;;;;0.85;0.55;;;21.80;99.90;;;;;;5067870;28;20036;-64
2022/07/04 11:47:09;;;;;;;3.38;0.80;;;21.90;99.90;;;;;;5068798;28;20044;-65
2022/07/04 11:49:36;;;;;;;2.83;0.60;;;21.90;99.90;;;;;;5068685;28;20059;-65
2022/07/04 11:52:03;;;;;;;0.60;0.50;;;21.90;99.90;;;;;;5069248;28;20056;-65
2022/07/04 11:54:30;;;;;;;3.13;0.57;;;21.80;99.90;;;;;;5067290;28;20482;-64
2022/07/04 11:57:11;;;;;;;4.57;0.68;;;21.90;99.90;;;;;;5067474;28;20082;-65
2022/07/04 11:59:37;;;;;;;1.15;0.60;;;21.90;99.90;;;;;;5067465;28;20052;-64
2022/07/04 12:02:14;;;;;;;2.80;0.50;;;22.00;99.90;;;;;;5067097;28;20044;-64
2022/07/04 12:04:41;;;;;;;1.10;0.40;;;21.90;99.90;;;;;;5067405;28;20036;-65
2022/07/04 12:07:15;;;;;;;3.88;0.88;;;21.80;99.90;;;;;;5067203;28;20076;-64
2022/07/04 12:09:41;;;;;;;2.08;0.40;;;21.70;99.90;;;;;;5067122;28;20095;-64
2022/07/04 12:12:07;;;;;;;2.78;0.77;;;21.80;99.90;;;;;;5067319;28;20131;-65
2022/07/04 12:14:33;;;;;;;2.10;0.73;;;21.90;99.90;;;;;;5065918;28;20036;-64
2022/07/04 12:17:17;;;;;;;2.92;0.60;;;21.90;99.90;;;;;;5066161;28;20131;-65
2022/07/04 12:19:51;;;;;;;3.25;1.20;;;22.00;99.90;;;;;;5067946;28;20140;-64
2022/07/04 12:22:35;;;;;;;1.67;0.70;;;21.90;99.80;;;;;;5066934;28;20044;-64
2022/07/04 12:25:03;;;;;;;3.45;0.77;;;21.80;99.90;;;;;;5066686;28;20071;-64
2022/07/04 12:27:29;;;;;;;1.02;0.55;;;21.90;99.90;;;;;;5066513;28;20084;-65
2022/07/04 12:29:57;;;;;;;3.50;1.05;;;21.90;99.90;;;;;;5065813;28;20116;-64
2022/07/04 12:32:23;;;;;;;3.40;0.80;;;22.10;99.90;;;;;;5065101;28;20128;-65
2022/07/04 12:34:49;;;;;;;1.25;0.52;;;22.20;99.90;;;;;;5066394;28;20119;-65
2022/07/04 12:37:16;;;;;;;2.63;0.73;;;22.20;99.90;;;;;;5066638;28;20106;-64
2022/07/04 12:39:44;;;;;;;1.25;0.50;;;22.30;99.90;;;;;;5067397;28;20058;-65
2022/07/04 12:42:15;;;;;;;1.02;0.75;;;22.20;99.90;;;;;;5066063;28;20059;-65
2022/07/04 12:44:43;;;;;;;1.42;0.50;;;22.20;99.90;;;;;;5066509;28;20040;-64
2022/07/04 12:47:12;;;;;;;1.70;0.63;;;22.10;99.90;;;;;;5066487;28;20040;-64
2022/07/04 12:49:43;;;;;;;1.17;0.35;;;22.10;99.90;;;;;;5065398;28;20101;-64
2022/07/04 12:52:12;;;;;;;1.00;0.70;;;22.10;99.90;;;;;;5065426;28;20476;-65
2022/07/04 12:54:38;;;;;;;1.80;0.52;;;22.10;98.20;;;;;;5066578;28;20075;-65
2022/07/04 12:57:08;;;;;;;1.10;0.60;;;22.10;96.80;;;;;;5065759;28;20488;-64
2022/07/04 12:59:34;;;;;;;4.72;0.80;;;22.20;98.00;;;;;;5065223;28;20514;-65
2022/07/04 13:02:00;;;;;;;1.27;0.40;;;22.30;97.50;;;;;;5065109;28;20132;-64
2022/07/04 13:04:25;;;;;;;0.80;0.25;;;22.30;94.30;;;;;;5066298;28;20076;-65
2022/07/04 13:06:51;;;;;;;1.15;0.43;;;22.40;93.10;;;;;;5063743;28;20083;-64
2022/07/04 13:09:17;;;;;;;3.17;0.63;;;22.30;92.80;;;;;;5066009;28;20036;-64